Grizzly Air Cargo 5145


PAJN
Juneau International Airport
Juneau, Alaska, US
PAPG
Petersburg James A Johnson Airport
Petersburg, Alaska, US

Activity Log

Date Flight Route Aircraft Duration
No Flights Yet

Route Details

Aircraft Information
Primary: Boeing 727-200F
Backup: Boeing 737-800BCF
Route Data
Distance: 124nm
Sched. Duration: 0h 30m
Avg. Duration: 0h 00m (-30m)
Times Flown: 0
Recm'd Route: GLAZZ1 ODECO
Planned Altitude: 17,000ft
Origin Wx: PAJN 291053Z 00000KT 10SM FEW095 SCT120 SCT190 07/04 A2997 RMK AO2 SLP150 T00670044
Dest. Wx: PAPG 291141Z AUTO 00000KT 10SM -RA BKN006 BKN014 OVC065 09/09 A3000 RMK AO2 CIG 003V009 P0003
Notes:

Financial History
Total Freight: 0lbs
Average Load: 0lbs/flt
Fuel Used: 0lbs
Avg. Fuel Used: 0lbs/flt
Fuel Expense: $0
Avg. Fuel Expense: $0
Avg. Fuel Cost: $0/lbs
Total Gross Income: $0
Pilot Pay: $0
Total Expenses: $0
Total Revenue: $0
Average Revenue: $0